createdAt,value
2018-07-22T00:00:21.057Z,92.80
2018-07-22T00:02:49.480Z,93.00
2018-07-22T00:05:18.009Z,93.20
2018-07-22T00:07:46.487Z,93.40
2018-07-22T00:10:22.105Z,93.50
2018-07-22T00:12:51.187Z,93.60
2018-07-22T00:15:20.058Z,93.90
2018-07-22T00:17:48.560Z,93.90
2018-07-22T00:20:17.261Z,94.10
2018-07-22T00:22:45.959Z,94.30
2018-07-22T00:25:14.816Z,94.40
2018-07-22T00:27:43.390Z,94.60
2018-07-22T00:30:11.822Z,94.80
2018-07-22T00:32:42.572Z,95.00
2018-07-22T00:35:12.577Z,95.30
2018-07-22T00:37:41.524Z,95.60
2018-07-22T00:40:12.526Z,95.80
2018-07-22T00:42:40.984Z,96.10
2018-07-22T00:45:13.042Z,96.30
2018-07-22T00:47:42.149Z,96.60
2018-07-22T00:52:40.125Z,96.90
2018-07-22T00:55:08.625Z,97.10
2018-07-22T00:57:37.173Z,97.30
2018-07-22T01:00:06.314Z,97.50
2018-07-22T01:02:34.709Z,97.60
2018-07-22T01:05:03.237Z,97.80
2018-07-22T01:07:31.705Z,98.10
2018-07-22T01:10:00.158Z,98.40
2018-07-22T01:12:28.731Z,98.60
2018-07-22T01:14:57.279Z,98.70
2018-07-22T01:17:25.781Z,98.90
2018-07-22T01:19:54.451Z,99.20
2018-07-22T01:22:22.949Z,99.40
2018-07-22T01:24:51.418Z,99.40
2018-07-22T01:27:20.010Z,99.60
2018-07-22T01:29:48.401Z,99.90
2018-07-22T01:32:16.935Z,99.90
2018-07-22T01:34:45.425Z,99.90
2018-07-22T01:37:14.636Z,99.90
2018-07-22T01:39:43.106Z,99.90
2018-07-22T01:44:39.712Z,99.90
2018-07-22T01:47:08.280Z,99.90
2018-07-22T01:49:36.781Z,99.90
2018-07-22T01:52:05.274Z,99.90
2018-07-22T01:54:33.735Z,99.90
2018-07-22T01:57:02.266Z,99.90
2018-07-22T01:59:30.724Z,99.90
2018-07-22T02:01:59.262Z,99.90
2018-07-22T02:04:27.693Z,99.90
2018-07-22T02:09:24.436Z,99.90
2018-07-22T02:11:53.021Z,99.90
2018-07-22T02:14:21.686Z,99.90
2018-07-22T02:16:50.154Z,99.90
2018-07-22T02:19:18.697Z,99.90
2018-07-22T02:21:47.221Z,99.90
2018-07-22T02:24:15.790Z,99.90
2018-07-22T02:26:44.303Z,99.90
2018-07-22T02:29:13.068Z,99.90
2018-07-22T02:31:41.517Z,99.90
2018-07-22T02:34:10.027Z,99.90
2018-07-22T02:36:38.553Z,99.90
2018-07-22T02:39:09.077Z,99.90
2018-07-22T02:41:37.545Z,99.90
2018-07-22T02:44:06.030Z,99.90
2018-07-22T02:46:34.659Z,99.90
2018-07-22T02:49:03.153Z,99.90
2018-07-22T02:51:31.832Z,99.90
2018-07-22T02:54:00.278Z,99.90
2018-07-22T02:56:29.450Z,99.90
2018-07-22T02:58:58.066Z,99.90
2018-07-22T03:01:27.376Z,99.90
2018-07-22T03:03:55.875Z,99.90
2018-07-22T03:06:24.469Z,99.90
2018-07-22T03:08:53.089Z,99.90
2018-07-22T03:11:21.582Z,99.90
2018-07-22T03:13:50.078Z,99.90
2018-07-22T03:16:18.522Z,99.90
2018-07-22T03:18:47.063Z,99.90
2018-07-22T03:21:15.580Z,99.90
2018-07-22T03:23:44.060Z,99.90
2018-07-22T03:26:13.342Z,99.90
2018-07-22T03:28:41.938Z,99.90
2018-07-22T03:31:10.430Z,99.90
2018-07-22T03:36:07.777Z,99.90
2018-07-22T03:38:36.255Z,99.90
2018-07-22T03:41:05.500Z,99.90
2018-07-22T03:43:33.967Z,99.90
2018-07-22T03:46:02.459Z,99.90
2018-07-22T03:48:30.970Z,99.90
2018-07-22T03:50:59.462Z,99.90
2018-07-22T03:53:27.945Z,99.90
2018-07-22T03:55:56.430Z,99.90
2018-07-22T03:58:24.928Z,99.90
2018-07-22T04:00:53.438Z,99.90
2018-07-22T04:03:21.951Z,99.90
2018-07-22T04:05:50.408Z,99.90
2018-07-22T04:08:18.960Z,99.90
2018-07-22T04:13:15.594Z,99.90
2018-07-22T04:15:44.039Z,99.90
2018-07-22T04:18:12.501Z,99.90
2018-07-22T04:20:41.077Z,99.90
2018-07-22T04:23:09.547Z,99.90
2018-07-22T04:25:38.018Z,99.90
2018-07-22T04:28:06.571Z,99.90
2018-07-22T04:33:03.253Z,99.90
2018-07-22T04:35:31.752Z,99.90
2018-07-22T04:38:00.284Z,99.90
2018-07-22T04:40:29.457Z,99.90
2018-07-22T04:42:58.013Z,99.90
2018-07-22T04:45:26.494Z,99.90
2018-07-22T04:47:54.976Z,99.90
2018-07-22T04:50:23.497Z,99.90
2018-07-22T04:52:52.045Z,99.90
2018-07-22T04:55:20.556Z,99.90
2018-07-22T04:57:49.016Z,99.90
2018-07-22T05:00:17.473Z,99.90
2018-07-22T05:02:45.992Z,99.90
2018-07-22T05:05:14.494Z,99.90
2018-07-22T05:07:42.982Z,99.90
2018-07-22T05:10:11.476Z,99.90
2018-07-22T05:12:39.977Z,99.90
2018-07-22T05:15:08.590Z,99.90
2018-07-22T05:17:37.133Z,99.90
2018-07-22T05:20:05.620Z,99.90
2018-07-22T05:22:34.106Z,99.90
2018-07-22T05:25:02.630Z,99.90
2018-07-22T05:27:31.064Z,99.90
2018-07-22T05:29:59.565Z,99.90
2018-07-22T05:32:28.084Z,99.90
2018-07-22T05:34:56.652Z,99.90
2018-07-22T05:37:25.140Z,99.90
2018-07-22T05:42:21.767Z,99.90
2018-07-22T05:44:50.802Z,99.90
2018-07-22T05:47:19.339Z,99.90
2018-07-22T05:49:47.840Z,99.90
2018-07-22T05:52:16.971Z,99.90
2018-07-22T05:54:45.698Z,99.90
2018-07-22T05:57:14.263Z,99.90
2018-07-22T05:59:42.776Z,99.90
2018-07-22T06:02:11.269Z,99.90
2018-07-22T06:04:39.737Z,99.90
2018-07-22T06:07:09.243Z,99.90
2018-07-22T06:09:37.737Z,99.90
2018-07-22T06:12:06.365Z,99.90
2018-07-22T06:14:34.915Z,99.90
2018-07-22T06:17:03.473Z,99.90
2018-07-22T06:19:32.069Z,99.90
2018-07-22T06:22:00.567Z,99.90
2018-07-22T06:24:29.162Z,99.90
2018-07-22T06:29:25.868Z,99.90
2018-07-22T06:31:54.422Z,99.90
2018-07-22T06:34:22.935Z,99.90
2018-07-22T06:36:51.456Z,99.90
2018-07-22T06:39:19.918Z,99.90
2018-07-22T06:41:48.390Z,99.90
2018-07-22T06:44:17.218Z,99.90
2018-07-22T06:46:45.940Z,99.90
2018-07-22T06:49:15.219Z,99.90
2018-07-22T06:51:43.819Z,99.90
2018-07-22T06:54:12.399Z,99.90
2018-07-22T06:56:40.937Z,99.90
2018-07-22T07:04:05.864Z,98.60
2018-07-22T07:06:34.394Z,98.00
2018-07-22T07:09:03.003Z,97.70
2018-07-22T07:11:31.597Z,97.00
2018-07-22T07:14:00.179Z,95.70
2018-07-22T07:16:28.842Z,94.90
2018-07-22T07:18:57.319Z,93.90
2018-07-22T07:21:25.879Z,93.40
2018-07-22T07:23:54.448Z,91.40
2018-07-22T07:26:22.976Z,90.90
2018-07-22T07:28:53.210Z,90.00
2018-07-22T07:31:21.703Z,89.50
2018-07-22T07:33:50.156Z,89.90
2018-07-22T07:36:18.671Z,90.60
2018-07-22T07:38:47.248Z,90.10
2018-07-22T07:41:15.746Z,89.30
2018-07-22T07:43:44.369Z,91.40
2018-07-22T07:46:12.914Z,91.70
2018-07-22T07:48:42.118Z,90.00
2018-07-22T07:51:10.765Z,90.00
2018-07-22T07:53:39.710Z,87.30
2018-07-22T07:56:08.185Z,85.20
2018-07-22T07:58:37.289Z,85.80
2018-07-22T08:01:05.834Z,82.20
2018-07-22T08:03:34.338Z,81.50
2018-07-22T08:06:02.828Z,80.30
2018-07-22T08:08:31.719Z,80.80
2018-07-22T08:11:00.326Z,80.00
2018-07-22T08:13:28.995Z,80.40
2018-07-22T08:15:57.767Z,78.90
2018-07-22T08:18:26.956Z,80.40
2018-07-22T08:20:55.548Z,80.00
2018-07-22T08:23:24.084Z,80.50
2018-07-22T08:25:52.843Z,79.60
2018-07-22T08:28:32.607Z,78.20
2018-07-22T08:31:01.164Z,77.00
2018-07-22T08:33:29.821Z,75.60
2018-07-22T08:35:58.356Z,73.60
2018-07-22T08:38:27.577Z,71.80
2018-07-22T08:45:53.223Z,74.50
2018-07-22T08:48:21.709Z,75.00
2018-07-22T08:50:50.316Z,73.70
2018-07-22T08:53:18.900Z,69.70
2018-07-22T08:55:47.419Z,70.10
2018-07-22T08:58:15.858Z,68.50
2018-07-22T09:00:44.318Z,68.20
2018-07-22T09:03:12.969Z,66.20
2018-07-22T09:05:41.480Z,67.30
2018-07-22T09:08:10.112Z,64.70
2018-07-22T09:10:38.545Z,61.20
2018-07-22T09:13:07.034Z,60.60
2018-07-22T09:15:35.586Z,59.70
2018-07-22T09:18:04.134Z,58.60
2018-07-22T09:20:32.610Z,57.60
2018-07-22T09:23:01.216Z,57.30
2018-07-22T09:25:29.733Z,57.60
2018-07-22T09:27:58.317Z,56.60
2018-07-22T09:30:26.917Z,53.10
2018-07-22T09:32:55.500Z,52.70
2018-07-22T09:35:24.100Z,50.70
2018-07-22T09:37:52.626Z,49.00
2018-07-22T09:40:21.215Z,48.60
2018-07-22T09:42:50.001Z,49.20
2018-07-22T09:45:18.518Z,47.80
2018-07-22T09:47:47.066Z,47.80
2018-07-22T09:50:15.575Z,47.50
2018-07-22T09:52:43.990Z,48.80
2018-07-22T09:55:12.505Z,47.40
2018-07-22T09:57:40.986Z,45.40
2018-07-22T10:00:09.478Z,44.80
2018-07-22T10:02:38.009Z,45.80
2018-07-22T10:05:06.521Z,46.40
2018-07-22T10:07:35.016Z,45.10
2018-07-22T10:10:03.465Z,45.30
2018-07-22T10:12:31.985Z,45.70
2018-07-22T10:15:00.473Z,45.00
2018-07-22T10:17:29.070Z,45.80
2018-07-22T10:19:57.500Z,45.50
2018-07-22T10:22:25.999Z,44.70
2018-07-22T10:24:54.457Z,44.20
2018-07-22T10:27:22.991Z,44.60
2018-07-22T10:29:51.501Z,46.10
2018-07-22T10:32:20.169Z,43.90
2018-07-22T10:34:49.595Z,43.90
2018-07-22T10:37:18.097Z,43.10
2018-07-22T10:39:46.561Z,42.40
2018-07-22T10:42:15.121Z,44.40
2018-07-22T10:44:43.692Z,43.30
2018-07-22T10:47:12.239Z,42.10
2018-07-22T10:49:40.861Z,42.30
2018-07-22T10:52:09.364Z,42.10
2018-07-22T10:54:37.896Z,39.90
2018-07-22T10:57:06.485Z,40.60
2018-07-22T10:59:35.177Z,40.00
2018-07-22T11:02:03.648Z,38.80
